sensor_id;sensor_type;location;lat;lon;timestamp;P1;durP1;ratioP1;P2;durP2;ratioP2
2824;SDS011;1420;51.324;12.344;2023-04-24T00:01:57;299.58;;;281.50;;
2824;SDS011;1420;51.324;12.344;2023-04-24T00:04:24;350.34;;;330.54;;
2824;SDS011;1420;51.324;12.344;2023-04-24T00:06:51;338.36;;;318.38;;
2824;SDS011;1420;51.324;12.344;2023-04-24T00:09:19;387.74;;;364.52;;
2824;SDS011;1420;51.324;12.344;2023-04-24T00:11:46;314.64;;;294.94;;
2824;SDS011;1420;51.324;12.344;2023-04-24T00:14:13;310.04;;;294.04;;
2824;SDS011;1420;51.324;12.344;2023-04-24T00:16:40;391.54;;;366.92;;
2824;SDS011;1420;51.324;12.344;2023-04-24T00:19:07;359.88;;;336.92;;
2824;SDS011;1420;51.324;12.344;2023-04-24T00:21:35;466.38;;;435.90;;
2824;SDS011;1420;51.324;12.344;2023-04-24T00:24:02;537.14;;;499.94;;
2824;SDS011;1420;51.324;12.344;2023-04-24T00:26:29;520.70;;;489.42;;
2824;SDS011;1420;51.324;12.344;2023-04-24T00:28:56;511.28;;;477.18;;
2824;SDS011;1420;51.324;12.344;2023-04-24T00:31:24;538.70;;;504.42;;
2824;SDS011;1420;51.324;12.344;2023-04-24T00:33:52;547.80;;;514.94;;
2824;SDS011;1420;51.324;12.344;2023-04-24T00:36:19;596.86;;;558.10;;
2824;SDS011;1420;51.324;12.344;2023-04-24T00:38:47;622.30;;;580.24;;
2824;SDS011;1420;51.324;12.344;2023-04-24T00:41:14;620.24;;;583.44;;
2824;SDS011;1420;51.324;12.344;2023-04-24T00:43:41;687.60;;;641.62;;
2824;SDS011;1420;51.324;12.344;2023-04-24T00:46:08;697.68;;;646.28;;
2824;SDS011;1420;51.324;12.344;2023-04-24T00:48:36;883.84;;;804.44;;
2824;SDS011;1420;51.324;12.344;2023-04-24T00:51:04;738.54;;;685.44;;
2824;SDS011;1420;51.324;12.344;2023-04-24T00:53:31;708.74;;;660.30;;
2824;SDS011;1420;51.324;12.344;2023-04-24T00:55:58;712.54;;;661.70;;
2824;SDS011;1420;51.324;12.344;2023-04-24T00:58:25;795.34;;;739.12;;
2824;SDS011;1420;51.324;12.344;2023-04-24T01:00:53;707.10;;;660.68;;
2824;SDS011;1420;51.324;12.344;2023-04-24T01:03:20;794.94;;;745.20;;
2824;SDS011;1420;51.324;12.344;2023-04-24T01:05:48;676.84;;;634.24;;
2824;SDS011;1420;51.324;12.344;2023-04-24T01:08:15;705.98;;;658.28;;
2824;SDS011;1420;51.324;12.344;2023-04-24T01:10:43;693.20;;;646.78;;
2824;SDS011;1420;51.324;12.344;2023-04-24T01:13:11;891.82;;;821.74;;
2824;SDS011;1420;51.324;12.344;2023-04-24T01:15:38;963.24;;;878.48;;
2824;SDS011;1420;51.324;12.344;2023-04-24T01:18:05;680.34;;;640.60;;
2824;SDS011;1420;51.324;12.344;2023-04-24T01:20:33;766.56;;;711.34;;
2824;SDS011;1420;51.324;12.344;2023-04-24T01:23:01;752.36;;;707.36;;
2824;SDS011;1420;51.324;12.344;2023-04-24T01:25:28;778.50;;;730.52;;
2824;SDS011;1420;51.324;12.344;2023-04-24T01:27:55;681.46;;;638.86;;
2824;SDS011;1420;51.324;12.344;2023-04-24T01:30:23;740.96;;;681.78;;
2824;SDS011;1420;51.324;12.344;2023-04-24T01:32:50;796.08;;;739.10;;
2824;SDS011;1420;51.324;12.344;2023-04-24T01:35:18;721.30;;;669.52;;
2824;SDS011;1420;51.324;12.344;2023-04-24T01:37:45;771.14;;;715.54;;
2824;SDS011;1420;51.324;12.344;2023-04-24T01:40:12;842.66;;;780.98;;
2824;SDS011;1420;51.324;12.344;2023-04-24T01:42:40;696.64;;;655.18;;
2824;SDS011;1420;51.324;12.344;2023-04-24T01:45:07;700.30;;;652.40;;
2824;SDS011;1420;51.324;12.344;2023-04-24T01:47:35;714.40;;;667.80;;
2824;SDS011;1420;51.324;12.344;2023-04-24T01:50:02;754.90;;;706.60;;
2824;SDS011;1420;51.324;12.344;2023-04-24T01:52:30;734.16;;;683.00;;
2824;SDS011;1420;51.324;12.344;2023-04-24T01:55:00;691.14;;;646.08;;
2824;SDS011;1420;51.324;12.344;2023-04-24T01:57:27;656.06;;;615.80;;
2824;SDS011;1420;51.324;12.344;2023-04-24T01:59:55;730.44;;;682.40;;
2824;SDS011;1420;51.324;12.344;2023-04-24T02:02:22;852.26;;;788.52;;
2824;SDS011;1420;51.324;12.344;2023-04-24T02:04:50;737.70;;;690.32;;
2824;SDS011;1420;51.324;12.344;2023-04-24T02:07:17;673.56;;;633.48;;
2824;SDS011;1420;51.324;12.344;2023-04-24T02:09:45;710.10;;;663.86;;
2824;SDS011;1420;51.324;12.344;2023-04-24T02:12:12;682.00;;;639.24;;
2824;SDS011;1420;51.324;12.344;2023-04-24T02:14:40;650.94;;;609.04;;
2824;SDS011;1420;51.324;12.344;2023-04-24T02:17:07;777.22;;;724.58;;
2824;SDS011;1420;51.324;12.344;2023-04-24T02:19:34;675.70;;;630.34;;
2824;SDS011;1420;51.324;12.344;2023-04-24T02:22:02;827.18;;;770.42;;
2824;SDS011;1420;51.324;12.344;2023-04-24T02:24:29;690.12;;;644.32;;
2824;SDS011;1420;51.324;12.344;2023-04-24T02:26:56;774.26;;;719.86;;
2824;SDS011;1420;51.324;12.344;2023-04-24T02:29:23;710.40;;;664.52;;
2824;SDS011;1420;51.324;12.344;2023-04-24T02:31:51;828.66;;;761.84;;
2824;SDS011;1420;51.324;12.344;2023-04-24T02:34:18;726.20;;;674.96;;
2824;SDS011;1420;51.324;12.344;2023-04-24T02:36:46;733.60;;;685.90;;
2824;SDS011;1420;51.324;12.344;2023-04-24T02:39:13;700.26;;;653.74;;
2824;SDS011;1420;51.324;12.344;2023-04-24T02:41:41;737.84;;;689.60;;
2824;SDS011;1420;51.324;12.344;2023-04-24T02:44:08;724.10;;;675.28;;
2824;SDS011;1420;51.324;12.344;2023-04-24T02:46:35;749.88;;;701.18;;
2824;SDS011;1420;51.324;12.344;2023-04-24T02:49:02;761.20;;;706.02;;
2824;SDS011;1420;51.324;12.344;2023-04-24T02:51:32;761.66;;;711.38;;
2824;SDS011;1420;51.324;12.344;2023-04-24T02:53:59;677.56;;;633.02;;
2824;SDS011;1420;51.324;12.344;2023-04-24T02:56:26;794.92;;;734.72;;
2824;SDS011;1420;51.324;12.344;2023-04-24T02:58:53;686.50;;;641.00;;
2824;SDS011;1420;51.324;12.344;2023-04-24T03:01:21;724.28;;;678.42;;
2824;SDS011;1420;51.324;12.344;2023-04-24T03:03:48;745.70;;;694.08;;
2824;SDS011;1420;51.324;12.344;2023-04-24T03:06:15;787.02;;;730.34;;
2824;SDS011;1420;51.324;12.344;2023-04-24T03:08:42;744.28;;;695.04;;
2824;SDS011;1420;51.324;12.344;2023-04-24T03:11:09;824.80;;;768.86;;
2824;SDS011;1420;51.324;12.344;2023-04-24T03:13:37;778.72;;;725.28;;
2824;SDS011;1420;51.324;12.344;2023-04-24T03:16:05;725.16;;;674.04;;
2824;SDS011;1420;51.324;12.344;2023-04-24T03:18:32;731.54;;;681.22;;
2824;SDS011;1420;51.324;12.344;2023-04-24T03:21:00;754.34;;;705.46;;
2824;SDS011;1420;51.324;12.344;2023-04-24T03:23:26;673.06;;;630.36;;
2824;SDS011;1420;51.324;12.344;2023-04-24T03:25:54;849.74;;;787.08;;
2824;SDS011;1420;51.324;12.344;2023-04-24T03:28:22;766.06;;;715.20;;
2824;SDS011;1420;51.324;12.344;2023-04-24T03:30:49;860.06;;;798.74;;
2824;SDS011;1420;51.324;12.344;2023-04-24T03:33:16;712.16;;;662.46;;
2824;SDS011;1420;51.324;12.344;2023-04-24T03:35:43;696.92;;;651.40;;
2824;SDS011;1420;51.324;12.344;2023-04-24T03:38:11;747.52;;;703.22;;
2824;SDS011;1420;51.324;12.344;2023-04-24T03:40:38;811.94;;;756.24;;
2824;SDS011;1420;51.324;12.344;2023-04-24T03:43:05;765.42;;;716.18;;
2824;SDS011;1420;51.324;12.344;2023-04-24T03:45:32;680.54;;;636.14;;
2824;SDS011;1420;51.324;12.344;2023-04-24T03:47:59;781.66;;;731.76;;
2824;SDS011;1420;51.324;12.344;2023-04-24T03:50:27;829.84;;;772.62;;
2824;SDS011;1420;51.324;12.344;2023-04-24T03:52:55;780.78;;;730.28;;
2824;SDS011;1420;51.324;12.344;2023-04-24T03:55:22;783.00;;;734.50;;
2824;SDS011;1420;51.324;12.344;2023-04-24T03:57:49;664.86;;;618.76;;
2824;SDS011;1420;51.324;12.344;2023-04-24T04:00:17;621.42;;;583.68;;
2824;SDS011;1420;51.324;12.344;2023-04-24T04:02:45;734.44;;;685.36;;
2824;SDS011;1420;51.324;12.344;2023-04-24T04:05:12;670.90;;;627.14;;
2824;SDS011;1420;51.324;12.344;2023-04-24T04:07:40;708.98;;;662.30;;
2824;SDS011;1420;51.324;12.344;2023-04-24T04:10:08;702.34;;;658.24;;
2824;SDS011;1420;51.324;12.344;2023-04-24T04:12:35;758.20;;;706.70;;
2824;SDS011;1420;51.324;12.344;2023-04-24T04:15:03;702.36;;;655.78;;
2824;SDS011;1420;51.324;12.344;2023-04-24T04:17:30;700.86;;;652.80;;
2824;SDS011;1420;51.324;12.344;2023-04-24T04:19:58;676.48;;;634.78;;
2824;SDS011;1420;51.324;12.344;2023-04-24T04:22:25;694.44;;;649.04;;
2824;SDS011;1420;51.324;12.344;2023-04-24T04:24:53;676.26;;;632.00;;
2824;SDS011;1420;51.324;12.344;2023-04-24T04:27:20;622.84;;;584.62;;
2824;SDS011;1420;51.324;12.344;2023-04-24T04:29:47;658.02;;;616.40;;
2824;SDS011;1420;51.324;12.344;2023-04-24T04:32:16;762.54;;;713.54;;
2824;SDS011;1420;51.324;12.344;2023-04-24T04:34:44;641.52;;;604.14;;
2824;SDS011;1420;51.324;12.344;2023-04-24T04:37:11;825.28;;;765.70;;
2824;SDS011;1420;51.324;12.344;2023-04-24T04:39:39;685.82;;;642.60;;
2824;SDS011;1420;51.324;12.344;2023-04-24T04:42:06;658.26;;;619.06;;
2824;SDS011;1420;51.324;12.344;2023-04-24T04:44:33;612.76;;;575.86;;
2824;SDS011;1420;51.324;12.344;2023-04-24T04:47:01;561.24;;;531.90;;
2824;SDS011;1420;51.324;12.344;2023-04-24T04:49:29;659.86;;;618.50;;
2824;SDS011;1420;51.324;12.344;2023-04-24T04:51:56;573.68;;;539.58;;
2824;SDS011;1420;51.324;12.344;2023-04-24T04:54:23;573.64;;;539.12;;
2824;SDS011;1420;51.324;12.344;2023-04-24T04:56:51;624.84;;;587.90;;
2824;SDS011;1420;51.324;12.344;2023-04-24T04:59:18;613.02;;;577.68;;
2824;SDS011;1420;51.324;12.344;2023-04-24T05:01:45;545.24;;;512.04;;
2824;SDS011;1420;51.324;12.344;2023-04-24T05:04:12;708.20;;;662.84;;
2824;SDS011;1420;51.324;12.344;2023-04-24T05:06:40;665.58;;;621.30;;
2824;SDS011;1420;51.324;12.344;2023-04-24T05:09:08;537.22;;;508.04;;
2824;SDS011;1420;51.324;12.344;2023-04-24T05:11:35;563.70;;;531.44;;
2824;SDS011;1420;51.324;12.344;2023-04-24T05:14:02;461.42;;;435.32;;
2824;SDS011;1420;51.324;12.344;2023-04-24T05:16:30;753.88;;;706.72;;
2824;SDS011;1420;51.324;12.344;2023-04-24T05:18:58;615.02;;;579.14;;
2824;SDS011;1420;51.324;12.344;2023-04-24T05:21:26;523.74;;;495.32;;
2824;SDS011;1420;51.324;12.344;2023-04-24T05:23:54;483.56;;;455.34;;
2824;SDS011;1420;51.324;12.344;2023-04-24T05:26:21;466.78;;;440.04;;
2824;SDS011;1420;51.324;12.344;2023-04-24T05:28:49;464.46;;;439.22;;
2824;SDS011;1420;51.324;12.344;2023-04-24T05:31:17;436.68;;;413.76;;
2824;SDS011;1420;51.324;12.344;2023-04-24T05:33:44;452.08;;;428.98;;
2824;SDS011;1420;51.324;12.344;2023-04-24T05:36:12;363.08;;;341.54;;
2824;SDS011;1420;51.324;12.344;2023-04-24T05:38:39;310.44;;;294.48;;
2824;SDS011;1420;51.324;12.344;2023-04-24T05:41:06;321.54;;;305.08;;
2824;SDS011;1420;51.324;12.344;2023-04-24T05:43:34;266.90;;;253.54;;
2824;SDS011;1420;51.324;12.344;2023-04-24T05:46:01;263.02;;;249.50;;
2824;SDS011;1420;51.324;12.344;2023-04-24T05:48:28;203.50;;;192.96;;
2824;SDS011;1420;51.324;12.344;2023-04-24T05:50:56;261.30;;;247.34;;
2824;SDS011;1420;51.324;12.344;2023-04-24T05:53:24;129.70;;;121.52;;
2824;SDS011;1420;51.324;12.344;2023-04-24T05:55:52;210.10;;;199.00;;
2824;SDS011;1420;51.324;12.344;2023-04-24T05:58:19;224.00;;;212.50;;
2824;SDS011;1420;51.324;12.344;2023-04-24T06:00:46;127.74;;;118.98;;
2824;SDS011;1420;51.324;12.344;2023-04-24T06:03:13;153.22;;;143.96;;
2824;SDS011;1420;51.324;12.344;2023-04-24T06:05:40;211.18;;;199.10;;
2824;SDS011;1420;51.324;12.344;2023-04-24T06:08:10;174.98;;;164.62;;
2824;SDS011;1420;51.324;12.344;2023-04-24T06:10:38;97.04;;;90.26;;
2824;SDS011;1420;51.324;12.344;2023-04-24T06:13:06;115.10;;;107.46;;
2824;SDS011;1420;51.324;12.344;2023-04-24T06:15:33;187.42;;;176.14;;
2824;SDS011;1420;51.324;12.344;2023-04-24T06:18:00;111.52;;;104.42;;
2824;SDS011;1420;51.324;12.344;2023-04-24T06:20:28;175.04;;;165.18;;
2824;SDS011;1420;51.324;12.344;2023-04-24T06:22:55;241.30;;;226.84;;
2824;SDS011;1420;51.324;12.344;2023-04-24T06:25:25;435.38;;;405.90;;
2824;SDS011;1420;51.324;12.344;2023-04-24T06:27:51;164.76;;;154.80;;
2824;SDS011;1420;51.324;12.344;2023-04-24T06:30:19;137.26;;;128.80;;
2824;SDS011;1420;51.324;12.344;2023-04-24T06:32:46;156.04;;;146.64;;
2824;SDS011;1420;51.324;12.344;2023-04-24T06:35:13;160.84;;;151.30;;
2824;SDS011;1420;51.324;12.344;2023-04-24T06:37:41;159.40;;;149.50;;
2824;SDS011;1420;51.324;12.344;2023-04-24T06:40:08;265.18;;;251.02;;
2824;SDS011;1420;51.324;12.344;2023-04-24T06:42:36;180.26;;;168.56;;
2824;SDS011;1420;51.324;12.344;2023-04-24T06:45:03;207.66;;;196.08;;
2824;SDS011;1420;51.324;12.344;2023-04-24T06:47:31;172.44;;;162.24;;
2824;SDS011;1420;51.324;12.344;2023-04-24T06:49:58;393.82;;;370.12;;
2824;SDS011;1420;51.324;12.344;2023-04-24T06:52:25;264.88;;;250.52;;
2824;SDS011;1420;51.324;12.344;2023-04-24T06:54:52;159.58;;;150.00;;
2824;SDS011;1420;51.324;12.344;2023-04-24T06:57:19;214.66;;;201.06;;
2824;SDS011;1420;51.324;12.344;2023-04-24T06:59:47;186.42;;;175.48;;
2824;SDS011;1420;51.324;12.344;2023-04-24T07:02:14;226.36;;;213.64;;
2824;SDS011;1420;51.324;12.344;2023-04-24T07:04:41;256.38;;;239.04;;
2824;SDS011;1420;51.324;12.344;2023-04-24T07:07:09;184.60;;;173.30;;
2824;SDS011;1420;51.324;12.344;2023-04-24T07:09:36;158.14;;;148.62;;
2824;SDS011;1420;51.324;12.344;2023-04-24T07:12:04;202.94;;;190.32;;
2824;SDS011;1420;51.324;12.344;2023-04-24T07:14:32;158.62;;;149.22;;
2824;SDS011;1420;51.324;12.344;2023-04-24T07:16:59;189.38;;;178.04;;
2824;SDS011;1420;51.324;12.344;2023-04-24T07:19:26;160.00;;;150.54;;
2824;SDS011;1420;51.324;12.344;2023-04-24T07:21:53;175.04;;;164.10;;
2824;SDS011;1420;51.324;12.344;2023-04-24T07:24:21;158.38;;;149.16;;
2824;SDS011;1420;51.324;12.344;2023-04-24T07:26:48;109.62;;;102.32;;
2824;SDS011;1420;51.324;12.344;2023-04-24T07:29:15;93.22;;;86.54;;
2824;SDS011;1420;51.324;12.344;2023-04-24T07:31:42;86.92;;;80.24;;
2824;SDS011;1420;51.324;12.344;2023-04-24T07:34:10;143.00;;;133.96;;
2824;SDS011;1420;51.324;12.344;2023-04-24T07:36:37;137.10;;;128.64;;
2824;SDS011;1420;51.324;12.344;2023-04-24T07:39:05;184.46;;;174.26;;
2824;SDS011;1420;51.324;12.344;2023-04-24T07:41:32;578.64;;;538.74;;
2824;SDS011;1420;51.324;12.344;2023-04-24T07:44:00;264.10;;;249.82;;
2824;SDS011;1420;51.324;12.344;2023-04-24T07:46:29;245.44;;;232.44;;
2824;SDS011;1420;51.324;12.344;2023-04-24T07:48:55;261.34;;;247.36;;
2824;SDS011;1420;51.324;12.344;2023-04-24T07:51:22;256.70;;;243.38;;
2824;SDS011;1420;51.324;12.344;2023-04-24T07:53:49;242.68;;;229.74;;
2824;SDS011;1420;51.324;12.344;2023-04-24T07:56:18;227.02;;;215.12;;
2824;SDS011;1420;51.324;12.344;2023-04-24T07:58:46;250.54;;;238.50;;
2824;SDS011;1420;51.324;12.344;2023-04-24T08:01:13;298.94;;;284.60;;
2824;SDS011;1420;51.324;12.344;2023-04-24T08:03:40;369.40;;;351.76;;
2824;SDS011;1420;51.324;12.344;2023-04-24T08:06:07;387.62;;;369.14;;
2824;SDS011;1420;51.324;12.344;2023-04-24T08:08:34;528.64;;;503.58;;
2824;SDS011;1420;51.324;12.344;2023-04-24T08:11:02;461.70;;;439.06;;
2824;SDS011;1420;51.324;12.344;2023-04-24T08:13:30;463.04;;;440.16;;
2824;SDS011;1420;51.324;12.344;2023-04-24T08:15:58;549.74;;;522.20;;
2824;SDS011;1420;51.324;12.344;2023-04-24T08:18:25;601.02;;;570.72;;
2824;SDS011;1420;51.324;12.344;2023-04-24T08:20:52;627.90;;;595.38;;
2824;SDS011;1420;51.324;12.344;2023-04-24T08:23:19;602.56;;;572.46;;
2824;SDS011;1420;51.324;12.344;2023-04-24T08:25:46;700.28;;;660.04;;
2824;SDS011;1420;51.324;12.344;2023-04-24T08:28:14;711.64;;;671.10;;
2824;SDS011;1420;51.324;12.344;2023-04-24T08:30:41;744.16;;;702.14;;
2824;SDS011;1420;51.324;12.344;2023-04-24T08:33:08;767.48;;;723.16;;
2824;SDS011;1420;51.324;12.344;2023-04-24T08:35:35;874.78;;;816.70;;
2824;SDS011;1420;51.324;12.344;2023-04-24T08:38:03;772.14;;;726.78;;
2824;SDS011;1420;51.324;12.344;2023-04-24T08:40:30;832.46;;;784.20;;
2824;SDS011;1420;51.324;12.344;2023-04-24T08:42:57;814.40;;;768.34;;
2824;SDS011;1420;51.324;12.344;2023-04-24T08:45:24;735.88;;;693.72;;
2824;SDS011;1420;51.324;12.344;2023-04-24T08:47:52;757.74;;;713.56;;
2824;SDS011;1420;51.324;12.344;2023-04-24T08:50:19;770.76;;;727.00;;
2824;SDS011;1420;51.324;12.344;2023-04-24T08:52:48;691.90;;;652.52;;
2824;SDS011;1420;51.324;12.344;2023-04-24T08:55:14;675.12;;;637.96;;
2824;SDS011;1420;51.324;12.344;2023-04-24T08:57:42;743.36;;;702.70;;
2824;SDS011;1420;51.324;12.344;2023-04-24T09:00:09;696.10;;;657.82;;
2824;SDS011;1420;51.324;12.344;2023-04-24T09:02:39;628.04;;;595.66;;
2824;SDS011;1420;51.324;12.344;2023-04-24T09:05:06;643.02;;;608.84;;
2824;SDS011;1420;51.324;12.344;2023-04-24T09:07:34;802.52;;;756.22;;
2824;SDS011;1420;51.324;12.344;2023-04-24T09:10:01;794.72;;;749.22;;
2824;SDS011;1420;51.324;12.344;2023-04-24T09:12:29;813.72;;;766.28;;
2824;SDS011;1420;51.324;12.344;2023-04-24T09:14:57;791.44;;;746.82;;
2824;SDS011;1420;51.324;12.344;2023-04-24T09:17:24;765.12;;;721.48;;
2824;SDS011;1420;51.324;12.344;2023-04-24T09:19:51;796.08;;;748.86;;
2824;SDS011;1420;51.324;12.344;2023-04-24T09:22:18;767.96;;;722.74;;
2824;SDS011;1420;51.324;12.344;2023-04-24T09:24:46;757.82;;;716.16;;
2824;SDS011;1420;51.324;12.344;2023-04-24T09:27:13;728.90;;;688.54;;
2824;SDS011;1420;51.324;12.344;2023-04-24T09:29:53;686.24;;;648.44;;
2824;SDS011;1420;51.324;12.344;2023-04-24T09:34:45;870.44;;;807.40;;
2824;SDS011;1420;51.324;12.344;2023-04-24T09:37:12;707.96;;;669.88;;
2824;SDS011;1420;51.324;12.344;2023-04-24T09:39:39;721.18;;;680.70;;
2824;SDS011;1420;51.324;12.344;2023-04-24T09:42:07;728.98;;;687.30;;
2824;SDS011;1420;51.324;12.344;2023-04-24T09:44:34;819.44;;;768.78;;
2824;SDS011;1420;51.324;12.344;2023-04-24T09:47:01;708.30;;;668.58;;
2824;SDS011;1420;51.324;12.344;2023-04-24T09:49:29;746.52;;;702.78;;
2824;SDS011;1420;51.324;12.344;2023-04-24T09:52:02;748.70;;;705.12;;
2824;SDS011;1420;51.324;12.344;2023-04-24T09:54:29;727.94;;;684.64;;
2824;SDS011;1420;51.324;12.344;2023-04-24T09:56:56;730.88;;;690.78;;
2824;SDS011;1420;51.324;12.344;2023-04-24T09:59:24;741.26;;;698.82;;
2824;SDS011;1420;51.324;12.344;2023-04-24T10:01:52;726.66;;;686.50;;
2824;SDS011;1420;51.324;12.344;2023-04-24T10:04:20;720.82;;;679.66;;
2824;SDS011;1420;51.324;12.344;2023-04-24T10:06:48;804.58;;;756.14;;
2824;SDS011;1420;51.324;12.344;2023-04-24T10:09:16;799.04;;;750.48;;
2824;SDS011;1420;51.324;12.344;2023-04-24T10:11:44;775.18;;;729.62;;
2824;SDS011;1420;51.324;12.344;2023-04-24T10:14:14;714.70;;;674.20;;
2824;SDS011;1420;51.324;12.344;2023-04-24T10:16:40;836.10;;;783.70;;
2824;SDS011;1420;51.324;12.344;2023-04-24T10:19:07;800.88;;;753.02;;
2824;SDS011;1420;51.324;12.344;2023-04-24T10:21:35;804.32;;;757.06;;
2824;SDS011;1420;51.324;12.344;2023-04-24T10:24:02;833.02;;;782.42;;
2824;SDS011;1420;51.324;12.344;2023-04-24T10:26:29;820.84;;;771.88;;
2824;SDS011;1420;51.324;12.344;2023-04-24T10:28:57;855.56;;;804.12;;
2824;SDS011;1420;51.324;12.344;2023-04-24T10:31:24;796.48;;;749.66;;
2824;SDS011;1420;51.324;12.344;2023-04-24T10:33:51;890.30;;;834.82;;
2824;SDS011;1420;51.324;12.344;2023-04-24T10:36:18;892.20;;;836.04;;
2824;SDS011;1420;51.324;12.344;2023-04-24T10:38:46;962.28;;;897.74;;
2824;SDS011;1420;51.324;12.344;2023-04-24T10:41:14;871.30;;;817.12;;
2824;SDS011;1420;51.324;12.344;2023-04-24T10:43:42;868.00;;;814.86;;
2824;SDS011;1420;51.324;12.344;2023-04-24T10:46:09;858.16;;;807.00;;
2824;SDS011;1420;51.324;12.344;2023-04-24T10:48:41;850.72;;;799.66;;
2824;SDS011;1420;51.324;12.344;2023-04-24T10:51:04;864.16;;;812.66;;
2824;SDS011;1420;51.324;12.344;2023-04-24T10:53:31;846.40;;;795.74;;
2824;SDS011;1420;51.324;12.344;2023-04-24T10:56:00;947.38;;;889.22;;
2824;SDS011;1420;51.324;12.344;2023-04-24T10:58:38;953.40;;;890.82;;
2824;SDS011;1420;51.324;12.344;2023-04-24T11:01:05;1014.44;;;946.44;;
2824;SDS011;1420;51.324;12.344;2023-04-24T11:03:32;1005.56;;;938.20;;
2824;SDS011;1420;51.324;12.344;2023-04-24T11:06:00;1029.94;;;958.68;;
2824;SDS011;1420;51.324;12.344;2023-04-24T11:08:28;1084.66;;;998.86;;
2824;SDS011;1420;51.324;12.344;2023-04-24T11:10:59;1076.58;;;996.08;;
2824;SDS011;1420;51.324;12.344;2023-04-24T11:13:26;1113.06;;;999.90;;
2824;SDS011;1420;51.324;12.344;2023-04-24T11:18:38;1115.28;;;999.90;;
2824;SDS011;1420;51.324;12.344;2023-04-24T11:21:10;1104.90;;;999.90;;
2824;SDS011;1420;51.324;12.344;2023-04-24T11:23:39;1159.58;;;999.90;;
2824;SDS011;1420;51.324;12.344;2023-04-24T11:26:10;1069.24;;;989.98;;
2824;SDS011;1420;51.324;12.344;2023-04-24T11:28:37;1135.26;;;999.90;;
2824;SDS011;1420;51.324;12.344;2023-04-24T11:33:43;1112.78;;;999.90;;
2824;SDS011;1420;51.324;12.344;2023-04-24T11:36:10;1110.24;;;999.90;;
2824;SDS011;1420;51.324;12.344;2023-04-24T11:38:38;1098.72;;;999.90;;
2824;SDS011;1420;51.324;12.344;2023-04-24T11:41:05;1077.34;;;996.40;;
2824;SDS011;1420;51.324;12.344;2023-04-24T11:43:32;1127.04;;;999.90;;
2824;SDS011;1420;51.324;12.344;2023-04-24T11:46:00;1087.88;;;999.14;;
2824;SDS011;1420;51.324;12.344;2023-04-24T11:48:27;1071.42;;;947.44;;
2824;SDS011;1420;51.324;12.344;2023-04-24T11:50:54;1081.44;;;999.90;;
2824;SDS011;1420;51.324;12.344;2023-04-24T11:53:22;1109.72;;;999.90;;
2824;SDS011;1420;51.324;12.344;2023-04-24T11:55:49;1034.18;;;963.50;;
2824;SDS011;1420;51.324;12.344;2023-04-24T11:58:16;1042.92;;;969.66;;
2824;SDS011;1420;51.324;12.344;2023-04-24T12:00:43;1054.54;;;981.02;;
2824;SDS011;1420;51.324;12.344;2023-04-24T12:03:11;1070.34;;;991.86;;
2824;SDS011;1420;51.324;12.344;2023-04-24T12:05:39;1075.04;;;995.00;;
2824;SDS011;1420;51.324;12.344;2023-04-24T12:08:06;1142.36;;;999.90;;
2824;SDS011;1420;51.324;12.344;2023-04-24T12:10:33;1076.18;;;995.50;;
2824;SDS011;1420;51.324;12.344;2023-04-24T12:13:02;1110.88;;;999.90;;
2824;SDS011;1420;51.324;12.344;2023-04-24T12:15:30;1104.20;;;999.90;;
2824;SDS011;1420;51.324;12.344;2023-04-24T12:17:57;1089.64;;;999.22;;
2824;SDS011;1420;51.324;12.344;2023-04-24T12:20:26;1072.64;;;994.90;;
2824;SDS011;1420;51.324;12.344;2023-04-24T12:22:55;1147.56;;;999.90;;
2824;SDS011;1420;51.324;12.344;2023-04-24T12:25:23;1051.34;;;975.04;;
2824;SDS011;1420;51.324;12.344;2023-04-24T12:27:53;1131.12;;;999.90;;
2824;SDS011;1420;51.324;12.344;2023-04-24T12:30:20;1075.76;;;995.66;;
2824;SDS011;1420;51.324;12.344;2023-04-24T12:32:48;1123.98;;;999.90;;
2824;SDS011;1420;51.324;12.344;2023-04-24T12:35:20;1137.56;;;999.90;;
2824;SDS011;1420;51.324;12.344;2023-04-24T12:37:46;1098.00;;;999.90;;
2824;SDS011;1420;51.324;12.344;2023-04-24T12:40:14;1024.16;;;952.46;;
2824;SDS011;1420;51.324;12.344;2023-04-24T12:42:43;1091.76;;;999.90;;
2824;SDS011;1420;51.324;12.344;2023-04-24T12:45:12;1141.16;;;999.90;;
2824;SDS011;1420;51.324;12.344;2023-04-24T12:47:39;1149.04;;;999.90;;
2824;SDS011;1420;51.324;12.344;2023-04-24T12:50:07;1074.42;;;991.02;;
2824;SDS011;1420;51.324;12.344;2023-04-24T12:52:35;1086.98;;;997.60;;
2824;SDS011;1420;51.324;12.344;2023-04-24T12:55:02;1088.38;;;999.84;;
2824;SDS011;1420;51.324;12.344;2023-04-24T12:57:29;1092.98;;;999.90;;
2824;SDS011;1420;51.324;12.344;2023-04-24T12:59:57;1109.58;;;999.90;;
2824;SDS011;1420;51.324;12.344;2023-04-24T13:02:24;1111.12;;;999.90;;
2824;SDS011;1420;51.324;12.344;2023-04-24T13:04:52;1093.12;;;999.88;;
2824;SDS011;1420;51.324;12.344;2023-04-24T13:07:19;1087.70;;;999.16;;
2824;SDS011;1420;51.324;12.344;2023-04-24T13:09:47;1108.56;;;999.90;;
2824;SDS011;1420;51.324;12.344;2023-04-24T13:12:14;1075.80;;;993.98;;
2824;SDS011;1420;51.324;12.344;2023-04-24T13:14:41;1139.32;;;999.90;;
2824;SDS011;1420;51.324;12.344;2023-04-24T13:17:08;1075.50;;;993.26;;
2824;SDS011;1420;51.324;12.344;2023-04-24T13:19:36;1107.82;;;999.90;;
2824;SDS011;1420;51.324;12.344;2023-04-24T13:22:03;1114.86;;;999.90;;
2824;SDS011;1420;51.324;12.344;2023-04-24T13:24:30;1141.46;;;999.90;;
2824;SDS011;1420;51.324;12.344;2023-04-24T13:26:58;1093.78;;;999.90;;
2824;SDS011;1420;51.324;12.344;2023-04-24T13:29:25;1106.82;;;999.90;;
2824;SDS011;1420;51.324;12.344;2023-04-24T13:31:52;1158.38;;;999.90;;
2824;SDS011;1420;51.324;12.344;2023-04-24T13:34:23;1093.98;;;999.90;;
2824;SDS011;1420;51.324;12.344;2023-04-24T13:36:52;1125.82;;;999.90;;
2824;SDS011;1420;51.324;12.344;2023-04-24T13:39:18;1161.92;;;999.90;;
2824;SDS011;1420;51.324;12.344;2023-04-24T13:41:46;1131.78;;;999.90;;
2824;SDS011;1420;51.324;12.344;2023-04-24T13:44:14;1190.80;;;999.90;;
2824;SDS011;1420;51.324;12.344;2023-04-24T13:46:41;1121.00;;;999.90;;
2824;SDS011;1420;51.324;12.344;2023-04-24T13:49:09;1149.02;;;999.90;;
2824;SDS011;1420;51.324;12.344;2023-04-24T13:51:36;1141.16;;;999.90;;
2824;SDS011;1420;51.324;12.344;2023-04-24T13:54:03;1095.22;;;999.78;;
2824;SDS011;1420;51.324;12.344;2023-04-24T13:56:31;1108.64;;;999.90;;
2824;SDS011;1420;51.324;12.344;2023-04-24T13:58:58;1092.50;;;999.90;;
2824;SDS011;1420;51.324;12.344;2023-04-24T14:01:26;1050.62;;;971.56;;
2824;SDS011;1420;51.324;12.344;2023-04-24T14:03:53;1090.16;;;999.80;;
2824;SDS011;1420;51.324;12.344;2023-04-24T14:06:21;1072.20;;;991.96;;
2824;SDS011;1420;51.324;12.344;2023-04-24T14:08:49;1086.50;;;999.34;;
2824;SDS011;1420;51.324;12.344;2023-04-24T14:11:16;1125.14;;;999.90;;
2824;SDS011;1420;51.324;12.344;2023-04-24T14:13:43;1124.04;;;999.90;;
2824;SDS011;1420;51.324;12.344;2023-04-24T14:16:10;1093.60;;;999.42;;